sensor_id;sensor_type;location;lat;lon;timestamp;P1;durP1;ratioP1;P2;durP2;ratioP2
47715;SDS011;33476;50.984;3.538;2023-05-10T00:02:18;8.43;;;4.28;;
47715;SDS011;33476;50.984;3.538;2023-05-10T00:04:43;10.52;;;4.82;;
47715;SDS011;33476;50.984;3.538;2023-05-10T00:07:08;11.68;;;4.30;;
47715;SDS011;33476;50.984;3.538;2023-05-10T00:09:35;8.65;;;4.07;;
47715;SDS011;33476;50.984;3.538;2023-05-10T00:12:00;11.55;;;4.85;;
47715;SDS011;33476;50.984;3.538;2023-05-10T00:14:26;11.23;;;5.47;;
47715;SDS011;33476;50.984;3.538;2023-05-10T00:16:51;10.20;;;4.93;;
47715;SDS011;33476;50.984;3.538;2023-05-10T00:19:16;8.93;;;4.88;;
47715;SDS011;33476;50.984;3.538;2023-05-10T00:21:42;13.52;;;5.82;;
47715;SDS011;33476;50.984;3.538;2023-05-10T00:24:07;12.52;;;6.18;;
47715;SDS011;33476;50.984;3.538;2023-05-10T00:26:32;12.88;;;5.75;;
47715;SDS011;33476;50.984;3.538;2023-05-10T00:28:58;11.63;;;6.55;;
47715;SDS011;33476;50.984;3.538;2023-05-10T00:31:23;11.23;;;5.90;;
47715;SDS011;33476;50.984;3.538;2023-05-10T00:33:49;9.98;;;6.13;;
47715;SDS011;33476;50.984;3.538;2023-05-10T00:36:14;10.45;;;5.70;;
47715;SDS011;33476;50.984;3.538;2023-05-10T00:38:39;15.85;;;7.07;;
47715;SDS011;33476;50.984;3.538;2023-05-10T00:41:05;14.85;;;6.90;;
47715;SDS011;33476;50.984;3.538;2023-05-10T00:43:31;10.90;;;6.22;;
47715;SDS011;33476;50.984;3.538;2023-05-10T00:45:56;13.07;;;6.13;;
47715;SDS011;33476;50.984;3.538;2023-05-10T00:48:22;15.55;;;6.60;;
47715;SDS011;33476;50.984;3.538;2023-05-10T00:50:48;14.52;;;6.28;;
47715;SDS011;33476;50.984;3.538;2023-05-10T00:53:14;11.63;;;6.93;;
47715;SDS011;33476;50.984;3.538;2023-05-10T00:55:40;17.98;;;7.53;;
47715;SDS011;33476;50.984;3.538;2023-05-10T00:58:06;18.00;;;6.15;;
47715;SDS011;33476;50.984;3.538;2023-05-10T01:00:32;15.52;;;7.18;;
47715;SDS011;33476;50.984;3.538;2023-05-10T01:02:58;15.48;;;6.80;;
47715;SDS011;33476;50.984;3.538;2023-05-10T01:05:24;16.73;;;7.53;;
47715;SDS011;33476;50.984;3.538;2023-05-10T01:07:49;12.45;;;6.45;;
47715;SDS011;33476;50.984;3.538;2023-05-10T01:10:15;17.83;;;8.05;;
47715;SDS011;33476;50.984;3.538;2023-05-10T01:12:44;11.75;;;6.22;;
47715;SDS011;33476;50.984;3.538;2023-05-10T01:15:11;14.57;;;7.38;;
47715;SDS011;33476;50.984;3.538;2023-05-10T01:17:38;15.52;;;7.70;;
47715;SDS011;33476;50.984;3.538;2023-05-10T01:20:07;13.48;;;7.10;;
47715;SDS011;33476;50.984;3.538;2023-05-10T01:36:05;21.88;;;8.20;;
47715;SDS011;33476;50.984;3.538;2023-05-10T01:42:20;16.48;;;7.25;;
47715;SDS011;33476;50.984;3.538;2023-05-10T01:50:04;13.15;;;7.32;;
47715;SDS011;33476;50.984;3.538;2023-05-10T01:52:36;16.73;;;7.82;;
47715;SDS011;33476;50.984;3.538;2023-05-10T01:55:06;17.88;;;8.02;;
47715;SDS011;33476;50.984;3.538;2023-05-10T01:57:35;18.70;;;7.50;;
47715;SDS011;33476;50.984;3.538;2023-05-10T02:00:03;13.93;;;6.68;;
47715;SDS011;33476;50.984;3.538;2023-05-10T02:02:30;21.30;;;7.97;;
47715;SDS011;33476;50.984;3.538;2023-05-10T02:05:05;15.23;;;7.75;;
47715;SDS011;33476;50.984;3.538;2023-05-10T02:07:32;14.82;;;7.25;;
47715;SDS011;33476;50.984;3.538;2023-05-10T02:10:00;15.68;;;7.38;;
47715;SDS011;33476;50.984;3.538;2023-05-10T02:12:27;15.07;;;7.70;;
47715;SDS011;33476;50.984;3.538;2023-05-10T02:14:54;17.75;;;7.57;;
47715;SDS011;33476;50.984;3.538;2023-05-10T02:17:21;18.90;;;8.05;;
47715;SDS011;33476;50.984;3.538;2023-05-10T02:19:48;18.30;;;7.95;;
47715;SDS011;33476;50.984;3.538;2023-05-10T02:22:14;18.50;;;7.97;;
47715;SDS011;33476;50.984;3.538;2023-05-10T02:24:41;18.70;;;7.63;;
47715;SDS011;33476;50.984;3.538;2023-05-10T02:27:08;15.60;;;7.88;;
47715;SDS011;33476;50.984;3.538;2023-05-10T02:29:35;15.25;;;7.90;;
47715;SDS011;33476;50.984;3.538;2023-05-10T02:32:02;16.05;;;8.20;;
47715;SDS011;33476;50.984;3.538;2023-05-10T02:34:28;15.45;;;8.23;;
47715;SDS011;33476;50.984;3.538;2023-05-10T02:36:55;17.25;;;7.25;;
47715;SDS011;33476;50.984;3.538;2023-05-10T02:39:21;16.35;;;7.70;;
47715;SDS011;33476;50.984;3.538;2023-05-10T02:41:49;18.92;;;7.57;;
47715;SDS011;33476;50.984;3.538;2023-05-10T02:44:17;15.20;;;7.07;;
47715;SDS011;33476;50.984;3.538;2023-05-10T02:46:43;15.05;;;7.47;;
47715;SDS011;33476;50.984;3.538;2023-05-10T02:49:09;15.32;;;7.00;;
47715;SDS011;33476;50.984;3.538;2023-05-10T02:51:35;11.80;;;6.47;;
47715;SDS011;33476;50.984;3.538;2023-05-10T02:54:24;15.68;;;7.07;;
47715;SDS011;33476;50.984;3.538;2023-05-10T02:56:56;15.18;;;6.47;;
47715;SDS011;33476;50.984;3.538;2023-05-10T02:59:24;14.45;;;6.65;;
47715;SDS011;33476;50.984;3.538;2023-05-10T03:01:49;13.75;;;7.20;;
47715;SDS011;33476;50.984;3.538;2023-05-10T03:04:15;14.23;;;7.07;;
47715;SDS011;33476;50.984;3.538;2023-05-10T03:06:41;12.93;;;6.55;;
47715;SDS011;33476;50.984;3.538;2023-05-10T03:09:07;15.32;;;6.82;;
47715;SDS011;33476;50.984;3.538;2023-05-10T03:14:24;16.58;;;7.20;;
47715;SDS011;33476;50.984;3.538;2023-05-10T03:17:00;12.73;;;6.75;;
47715;SDS011;33476;50.984;3.538;2023-05-10T03:19:32;16.65;;;7.05;;
47715;SDS011;33476;50.984;3.538;2023-05-10T03:22:08;17.65;;;6.97;;
47715;SDS011;33476;50.984;3.538;2023-05-10T03:24:35;16.23;;;7.80;;
47715;SDS011;33476;50.984;3.538;2023-05-10T03:27:04;15.10;;;6.97;;
47715;SDS011;33476;50.984;3.538;2023-05-10T03:29:31;18.02;;;6.75;;
47715;SDS011;33476;50.984;3.538;2023-05-10T03:31:59;14.80;;;7.03;;
47715;SDS011;33476;50.984;3.538;2023-05-10T03:34:25;15.48;;;6.72;;
47715;SDS011;33476;50.984;3.538;2023-05-10T03:36:51;15.18;;;7.07;;
47715;SDS011;33476;50.984;3.538;2023-05-10T03:39:16;17.90;;;7.40;;
47715;SDS011;33476;50.984;3.538;2023-05-10T03:41:42;16.55;;;6.72;;
47715;SDS011;33476;50.984;3.538;2023-05-10T03:44:07;17.00;;;7.07;;
47715;SDS011;33476;50.984;3.538;2023-05-10T03:46:33;20.52;;;7.88;;
47715;SDS011;33476;50.984;3.538;2023-05-10T03:48:58;15.63;;;6.53;;
47715;SDS011;33476;50.984;3.538;2023-05-10T03:51:24;14.15;;;7.03;;
47715;SDS011;33476;50.984;3.538;2023-05-10T03:53:53;17.00;;;7.50;;
47715;SDS011;33476;50.984;3.538;2023-05-10T03:56:19;19.10;;;7.22;;
47715;SDS011;33476;50.984;3.538;2023-05-10T03:58:45;14.23;;;7.03;;
47715;SDS011;33476;50.984;3.538;2023-05-10T04:01:11;19.30;;;7.50;;
47715;SDS011;33476;50.984;3.538;2023-05-10T04:03:36;15.60;;;7.10;;
47715;SDS011;33476;50.984;3.538;2023-05-10T04:06:02;18.23;;;7.68;;
47715;SDS011;33476;50.984;3.538;2023-05-10T04:08:27;19.05;;;7.93;;
47715;SDS011;33476;50.984;3.538;2023-05-10T04:10:53;17.65;;;7.75;;
47715;SDS011;33476;50.984;3.538;2023-05-10T04:13:19;15.60;;;7.32;;
47715;SDS011;33476;50.984;3.538;2023-05-10T04:15:44;18.40;;;8.20;;
47715;SDS011;33476;50.984;3.538;2023-05-10T04:18:10;15.60;;;8.15;;
47715;SDS011;33476;50.984;3.538;2023-05-10T04:20:35;16.17;;;7.60;;
47715;SDS011;33476;50.984;3.538;2023-05-10T04:23:00;19.67;;;7.97;;
47715;SDS011;33476;50.984;3.538;2023-05-10T04:25:26;20.88;;;9.45;;
47715;SDS011;33476;50.984;3.538;2023-05-10T04:27:51;22.33;;;8.50;;
47715;SDS011;33476;50.984;3.538;2023-05-10T04:30:17;21.80;;;9.00;;
47715;SDS011;33476;50.984;3.538;2023-05-10T04:32:42;23.00;;;9.38;;
47715;SDS011;33476;50.984;3.538;2023-05-10T04:35:08;20.17;;;9.65;;
47715;SDS011;33476;50.984;3.538;2023-05-10T04:37:35;26.63;;;10.10;;
47715;SDS011;33476;50.984;3.538;2023-05-10T04:40:01;19.80;;;9.57;;
47715;SDS011;33476;50.984;3.538;2023-05-10T04:42:28;28.98;;;9.43;;
47715;SDS011;33476;50.984;3.538;2023-05-10T04:44:53;25.88;;;10.38;;
47715;SDS011;33476;50.984;3.538;2023-05-10T04:47:18;26.35;;;10.32;;
47715;SDS011;33476;50.984;3.538;2023-05-10T04:49:44;26.50;;;11.07;;
47715;SDS011;33476;50.984;3.538;2023-05-10T04:52:09;23.77;;;10.05;;
47715;SDS011;33476;50.984;3.538;2023-05-10T04:54:35;22.45;;;10.25;;
47715;SDS011;33476;50.984;3.538;2023-05-10T04:57:00;25.58;;;10.75;;
47715;SDS011;33476;50.984;3.538;2023-05-10T04:59:25;25.50;;;10.05;;
47715;SDS011;33476;50.984;3.538;2023-05-10T05:01:51;23.02;;;10.68;;
47715;SDS011;33476;50.984;3.538;2023-05-10T05:04:16;27.50;;;10.10;;
47715;SDS011;33476;50.984;3.538;2023-05-10T05:06:42;26.98;;;10.05;;
47715;SDS011;33476;50.984;3.538;2023-05-10T05:09:08;29.40;;;10.40;;
47715;SDS011;33476;50.984;3.538;2023-05-10T05:11:35;25.33;;;10.85;;
47715;SDS011;33476;50.984;3.538;2023-05-10T05:14:00;30.33;;;10.20;;
47715;SDS011;33476;50.984;3.538;2023-05-10T05:16:26;21.85;;;10.10;;
47715;SDS011;33476;50.984;3.538;2023-05-10T05:18:52;25.10;;;9.73;;
47715;SDS011;33476;50.984;3.538;2023-05-10T05:21:18;22.67;;;10.50;;
47715;SDS011;33476;50.984;3.538;2023-05-10T05:23:44;23.60;;;10.43;;
47715;SDS011;33476;50.984;3.538;2023-05-10T05:26:10;33.28;;;12.38;;
47715;SDS011;33476;50.984;3.538;2023-05-10T05:28:35;32.63;;;12.38;;
47715;SDS011;33476;50.984;3.538;2023-05-10T05:31:05;27.08;;;12.05;;
47715;SDS011;33476;50.984;3.538;2023-05-10T05:33:33;29.35;;;11.73;;
47715;SDS011;33476;50.984;3.538;2023-05-10T05:36:03;29.05;;;12.68;;
47715;SDS011;33476;50.984;3.538;2023-05-10T05:38:30;28.90;;;12.95;;
47715;SDS011;33476;50.984;3.538;2023-05-10T05:40:55;31.58;;;13.20;;
47715;SDS011;33476;50.984;3.538;2023-05-10T05:43:21;28.25;;;12.82;;
47715;SDS011;33476;50.984;3.538;2023-05-10T05:45:46;27.55;;;12.23;;
47715;SDS011;33476;50.984;3.538;2023-05-10T05:48:12;35.05;;;12.60;;
47715;SDS011;33476;50.984;3.538;2023-05-10T05:50:37;36.25;;;13.35;;
47715;SDS011;33476;50.984;3.538;2023-05-10T05:53:02;30.63;;;13.82;;
47715;SDS011;33476;50.984;3.538;2023-05-10T05:55:28;30.92;;;12.25;;
47715;SDS011;33476;50.984;3.538;2023-05-10T05:57:54;30.70;;;13.45;;
47715;SDS011;33476;50.984;3.538;2023-05-10T06:00:19;31.98;;;13.60;;
47715;SDS011;33476;50.984;3.538;2023-05-10T06:02:46;29.83;;;12.55;;
47715;SDS011;33476;50.984;3.538;2023-05-10T06:05:12;32.00;;;13.48;;
47715;SDS011;33476;50.984;3.538;2023-05-10T06:07:39;24.35;;;11.98;;
47715;SDS011;33476;50.984;3.538;2023-05-10T06:10:07;28.25;;;12.40;;
47715;SDS011;33476;50.984;3.538;2023-05-10T06:12:33;27.23;;;12.27;;
47715;SDS011;33476;50.984;3.538;2023-05-10T06:14:59;33.92;;;13.98;;
47715;SDS011;33476;50.984;3.538;2023-05-10T06:17:24;31.42;;;13.82;;
47715;SDS011;33476;50.984;3.538;2023-05-10T06:19:50;29.25;;;12.40;;
47715;SDS011;33476;50.984;3.538;2023-05-10T06:22:15;31.55;;;13.35;;
47715;SDS011;33476;50.984;3.538;2023-05-10T06:24:40;29.00;;;12.88;;
47715;SDS011;33476;50.984;3.538;2023-05-10T06:27:06;27.02;;;11.90;;
47715;SDS011;33476;50.984;3.538;2023-05-10T06:29:32;28.00;;;11.65;;
47715;SDS011;33476;50.984;3.538;2023-05-10T06:31:57;28.13;;;11.43;;
47715;SDS011;33476;50.984;3.538;2023-05-10T06:34:23;28.90;;;12.80;;
47715;SDS011;33476;50.984;3.538;2023-05-10T06:36:49;30.33;;;11.80;;
47715;SDS011;33476;50.984;3.538;2023-05-10T06:39:14;25.23;;;11.68;;
47715;SDS011;33476;50.984;3.538;2023-05-10T06:41:40;24.13;;;11.02;;
47715;SDS011;33476;50.984;3.538;2023-05-10T06:44:06;22.58;;;10.55;;
47715;SDS011;33476;50.984;3.538;2023-05-10T06:46:31;21.13;;;10.32;;
47715;SDS011;33476;50.984;3.538;2023-05-10T06:48:57;25.00;;;10.07;;
47715;SDS011;33476;50.984;3.538;2023-05-10T06:51:22;28.52;;;9.82;;
47715;SDS011;33476;50.984;3.538;2023-05-10T06:53:47;27.15;;;10.82;;
47715;SDS011;33476;50.984;3.538;2023-05-10T06:56:13;21.63;;;10.32;;
47715;SDS011;33476;50.984;3.538;2023-05-10T06:58:38;26.73;;;10.60;;
47715;SDS011;33476;50.984;3.538;2023-05-10T07:01:04;23.92;;;11.57;;
47715;SDS011;33476;50.984;3.538;2023-05-10T07:03:30;21.13;;;10.98;;
47715;SDS011;33476;50.984;3.538;2023-05-10T07:06:00;26.10;;;10.95;;
47715;SDS011;33476;50.984;3.538;2023-05-10T07:08:29;31.80;;;11.98;;
47715;SDS011;33476;50.984;3.538;2023-05-10T07:11:05;25.65;;;11.85;;
47715;SDS011;33476;50.984;3.538;2023-05-10T07:13:35;24.35;;;12.02;;
47715;SDS011;33476;50.984;3.538;2023-05-10T07:16:01;27.58;;;11.43;;
47715;SDS011;33476;50.984;3.538;2023-05-10T07:18:27;30.35;;;11.60;;
47715;SDS011;33476;50.984;3.538;2023-05-10T07:20:53;21.92;;;9.50;;
47715;SDS011;33476;50.984;3.538;2023-05-10T07:23:19;23.58;;;10.00;;
47715;SDS011;33476;50.984;3.538;2023-05-10T07:25:47;23.00;;;10.00;;
47715;SDS011;33476;50.984;3.538;2023-05-10T07:28:14;19.93;;;9.33;;
47715;SDS011;33476;50.984;3.538;2023-05-10T07:30:41;21.45;;;10.07;;
47715;SDS011;33476;50.984;3.538;2023-05-10T07:33:07;27.02;;;10.13;;
47715;SDS011;33476;50.984;3.538;2023-05-10T07:35:33;18.17;;;9.13;;
47715;SDS011;33476;50.984;3.538;2023-05-10T07:37:59;24.52;;;8.75;;
47715;SDS011;33476;50.984;3.538;2023-05-10T07:40:24;18.48;;;10.35;;
47715;SDS011;33476;50.984;3.538;2023-05-10T07:42:50;22.08;;;10.40;;
47715;SDS011;33476;50.984;3.538;2023-05-10T07:45:16;19.33;;;8.85;;
47715;SDS011;33476;50.984;3.538;2023-05-10T07:47:41;21.38;;;9.95;;
47715;SDS011;33476;50.984;3.538;2023-05-10T07:50:07;22.25;;;9.55;;
47715;SDS011;33476;50.984;3.538;2023-05-10T07:52:32;19.50;;;9.57;;
47715;SDS011;33476;50.984;3.538;2023-05-10T07:54:58;16.52;;;7.95;;
47715;SDS011;33476;50.984;3.538;2023-05-10T07:57:23;15.93;;;8.07;;
47715;SDS011;33476;50.984;3.538;2023-05-10T07:59:48;19.45;;;8.38;;
47715;SDS011;33476;50.984;3.538;2023-05-10T08:02:14;23.23;;;8.68;;
47715;SDS011;33476;50.984;3.538;2023-05-10T08:04:39;22.85;;;8.10;;
47715;SDS011;33476;50.984;3.538;2023-05-10T08:07:05;21.15;;;7.97;;
47715;SDS011;33476;50.984;3.538;2023-05-10T08:09:30;24.45;;;9.10;;
47715;SDS011;33476;50.984;3.538;2023-05-10T08:11:56;24.58;;;9.00;;
47715;SDS011;33476;50.984;3.538;2023-05-10T08:14:21;22.08;;;8.75;;
47715;SDS011;33476;50.984;3.538;2023-05-10T08:16:46;17.17;;;7.97;;
47715;SDS011;33476;50.984;3.538;2023-05-10T08:19:12;19.30;;;8.30;;
47715;SDS011;33476;50.984;3.538;2023-05-10T08:21:37;17.95;;;7.95;;
47715;SDS011;33476;50.984;3.538;2023-05-10T08:24:03;21.00;;;7.88;;
47715;SDS011;33476;50.984;3.538;2023-05-10T08:26:29;20.48;;;8.55;;
47715;SDS011;33476;50.984;3.538;2023-05-10T08:28:54;19.40;;;9.02;;
47715;SDS011;33476;50.984;3.538;2023-05-10T08:31:20;21.48;;;8.57;;
47715;SDS011;33476;50.984;3.538;2023-05-10T08:33:45;19.00;;;7.47;;
47715;SDS011;33476;50.984;3.538;2023-05-10T08:36:10;29.10;;;8.95;;
47715;SDS011;33476;50.984;3.538;2023-05-10T08:38:37;16.20;;;7.60;;
47715;SDS011;33476;50.984;3.538;2023-05-10T08:41:02;18.75;;;7.30;;
47715;SDS011;33476;50.984;3.538;2023-05-10T08:43:29;18.40;;;7.88;;
47715;SDS011;33476;50.984;3.538;2023-05-10T08:45:56;19.65;;;8.50;;
47715;SDS011;33476;50.984;3.538;2023-05-10T08:48:24;22.23;;;8.07;;
47715;SDS011;33476;50.984;3.538;2023-05-10T08:50:53;20.55;;;8.88;;
47715;SDS011;33476;50.984;3.538;2023-05-10T08:53:20;22.63;;;9.23;;
47715;SDS011;33476;50.984;3.538;2023-05-10T08:55:47;22.67;;;8.50;;
47715;SDS011;33476;50.984;3.538;2023-05-10T08:58:13;17.00;;;7.47;;
47715;SDS011;33476;50.984;3.538;2023-05-10T09:00:39;21.52;;;8.40;;
47715;SDS011;33476;50.984;3.538;2023-05-10T09:03:05;17.58;;;6.95;;
47715;SDS011;33476;50.984;3.538;2023-05-10T09:05:31;18.48;;;7.80;;
47715;SDS011;33476;50.984;3.538;2023-05-10T09:07:57;20.13;;;8.55;;
47715;SDS011;33476;50.984;3.538;2023-05-10T09:10:23;20.00;;;7.53;;
47715;SDS011;33476;50.984;3.538;2023-05-10T09:12:52;17.88;;;8.40;;
47715;SDS011;33476;50.984;3.538;2023-05-10T09:15:20;15.27;;;6.45;;
47715;SDS011;33476;50.984;3.538;2023-05-10T09:17:46;16.17;;;8.02;;
47715;SDS011;33476;50.984;3.538;2023-05-10T09:20:14;14.75;;;7.35;;
47715;SDS011;33476;50.984;3.538;2023-05-10T09:22:39;19.15;;;7.00;;
47715;SDS011;33476;50.984;3.538;2023-05-10T09:25:12;22.58;;;7.93;;
47715;SDS011;33476;50.984;3.538;2023-05-10T09:27:40;19.52;;;8.00;;
47715;SDS011;33476;50.984;3.538;2023-05-10T09:30:06;20.30;;;7.95;;
47715;SDS011;33476;50.984;3.538;2023-05-10T09:32:36;18.85;;;7.68;;
47715;SDS011;33476;50.984;3.538;2023-05-10T09:35:22;23.05;;;8.27;;
47715;SDS011;33476;50.984;3.538;2023-05-10T09:37:51;12.85;;;6.68;;
47715;SDS011;33476;50.984;3.538;2023-05-10T09:40:23;23.30;;;7.53;;
47715;SDS011;33476;50.984;3.538;2023-05-10T09:43:00;15.98;;;7.15;;
47715;SDS011;33476;50.984;3.538;2023-05-10T09:45:28;16.83;;;7.57;;
47715;SDS011;33476;50.984;3.538;2023-05-10T09:47:54;14.85;;;6.85;;
47715;SDS011;33476;50.984;3.538;2023-05-10T09:50:21;16.88;;;6.80;;
47715;SDS011;33476;50.984;3.538;2023-05-10T09:52:48;18.17;;;7.32;;
47715;SDS011;33476;50.984;3.538;2023-05-10T09:55:16;14.85;;;6.80;;
47715;SDS011;33476;50.984;3.538;2023-05-10T09:58:02;15.07;;;6.50;;
47715;SDS011;33476;50.984;3.538;2023-05-10T10:00:33;15.15;;;6.32;;
47715;SDS011;33476;50.984;3.538;2023-05-10T10:03:00;19.08;;;7.63;;
47715;SDS011;33476;50.984;3.538;2023-05-10T10:05:34;14.38;;;6.82;;
47715;SDS011;33476;50.984;3.538;2023-05-10T10:08:03;12.63;;;6.68;;
47715;SDS011;33476;50.984;3.538;2023-05-10T10:10:31;16.85;;;6.90;;
47715;SDS011;33476;50.984;3.538;2023-05-10T10:12:57;14.50;;;6.95;;
47715;SDS011;33476;50.984;3.538;2023-05-10T10:15:23;15.77;;;7.30;;
47715;SDS011;33476;50.984;3.538;2023-05-10T10:17:49;17.13;;;7.07;;
47715;SDS011;33476;50.984;3.538;2023-05-10T10:20:16;13.40;;;7.35;;
47715;SDS011;33476;50.984;3.538;2023-05-10T10:22:42;20.15;;;8.35;;
47715;SDS011;33476;50.984;3.538;2023-05-10T10:25:09;15.93;;;7.82;;
47715;SDS011;33476;50.984;3.538;2023-05-10T10:35:46;17.05;;;8.80;;
47715;SDS011;33476;50.984;3.538;2023-05-10T10:38:14;15.18;;;7.70;;
47715;SDS011;33476;50.984;3.538;2023-05-10T10:40:40;15.02;;;8.02;;
47715;SDS011;33476;50.984;3.538;2023-05-10T10:51:37;16.02;;;7.50;;
47715;SDS011;33476;50.984;3.538;2023-05-10T10:54:09;15.73;;;7.90;;
47715;SDS011;33476;50.984;3.538;2023-05-10T10:56:35;13.32;;;7.57;;
47715;SDS011;33476;50.984;3.538;2023-05-10T10:59:00;11.93;;;7.78;;
47715;SDS011;33476;50.984;3.538;2023-05-10T11:01:26;12.07;;;6.88;;
47715;SDS011;33476;50.984;3.538;2023-05-10T11:06:29;13.40;;;7.03;;
47715;SDS011;33476;50.984;3.538;2023-05-10T11:09:06;17.80;;;7.68;;
47715;SDS011;33476;50.984;3.538;2023-05-10T11:11:32;14.82;;;7.85;;
47715;SDS011;33476;50.984;3.538;2023-05-10T11:14:03;17.98;;;8.80;;
47715;SDS011;33476;50.984;3.538;2023-05-10T11:19:12;14.20;;;7.40;;
47715;SDS011;33476;50.984;3.538;2023-05-10T11:21:45;17.08;;;7.82;;
47715;SDS011;33476;50.984;3.538;2023-05-10T11:24:14;14.70;;;7.22;;
47715;SDS011;33476;50.984;3.538;2023-05-10T11:26:44;13.18;;;7.43;;
47715;SDS011;33476;50.984;3.538;2023-05-10T11:29:09;14.27;;;7.70;;
47715;SDS011;33476;50.984;3.538;2023-05-10T11:31:35;12.77;;;7.28;;
47715;SDS011;33476;50.984;3.538;2023-05-10T11:34:08;11.45;;;6.82;;
47715;SDS011;33476;50.984;3.538;2023-05-10T11:36:35;14.65;;;7.13;;
47715;SDS011;33476;50.984;3.538;2023-05-10T11:39:01;13.77;;;6.35;;
47715;SDS011;33476;50.984;3.538;2023-05-10T11:41:28;13.90;;;6.47;;
47715;SDS011;33476;50.984;3.538;2023-05-10T11:43:54;17.85;;;6.95;;
47715;SDS011;33476;50.984;3.538;2023-05-10T11:46:21;14.13;;;6.68;;
47715;SDS011;33476;50.984;3.538;2023-05-10T11:48:49;13.65;;;7.22;;
47715;SDS011;33476;50.984;3.538;2023-05-10T11:51:19;14.77;;;6.90;;
47715;SDS011;33476;50.984;3.538;2023-05-10T11:53:46;21.70;;;7.53;;
47715;SDS011;33476;50.984;3.538;2023-05-10T11:56:11;11.93;;;6.85;;
47715;SDS011;33476;50.984;3.538;2023-05-10T11:58:38;12.93;;;6.85;;
47715;SDS011;33476;50.984;3.538;2023-05-10T12:01:04;13.30;;;6.63;;
47715;SDS011;33476;50.984;3.538;2023-05-10T12:03:31;14.68;;;7.40;;
47715;SDS011;33476;50.984;3.538;2023-05-10T12:05:57;15.68;;;7.10;;
47715;SDS011;33476;50.984;3.538;2023-05-10T12:08:27;14.75;;;6.82;;
47715;SDS011;33476;50.984;3.538;2023-05-10T12:11:03;14.07;;;7.07;;
47715;SDS011;33476;50.984;3.538;2023-05-10T12:13:30;16.15;;;7.15;;
47715;SDS011;33476;50.984;3.538;2023-05-10T12:15:58;13.82;;;7.50;;
47715;SDS011;33476;50.984;3.538;2023-05-10T12:18:24;15.02;;;6.13;;
47715;SDS011;33476;50.984;3.538;2023-05-10T12:20:53;16.98;;;7.80;;
47715;SDS011;33476;50.984;3.538;2023-05-10T12:23:18;16.60;;;7.32;;
47715;SDS011;33476;50.984;3.538;2023-05-10T12:25:45;17.63;;;8.32;;
47715;SDS011;33476;50.984;3.538;2023-05-10T12:28:10;16.98;;;8.60;;
47715;SDS011;33476;50.984;3.538;2023-05-10T12:30:36;26.88;;;9.02;;
47715;SDS011;33476;50.984;3.538;2023-05-10T12:33:02;16.17;;;8.75;;
47715;SDS011;33476;50.984;3.538;2023-05-10T12:35:52;15.43;;;8.57;;
47715;SDS011;33476;50.984;3.538;2023-05-10T12:38:34;13.57;;;7.13;;
47715;SDS011;33476;50.984;3.538;2023-05-10T12:41:03;20.95;;;7.78;;
47715;SDS011;33476;50.984;3.538;2023-05-10T12:43:30;14.10;;;7.07;;
47715;SDS011;33476;50.984;3.538;2023-05-10T12:45:56;16.27;;;6.70;;
47715;SDS011;33476;50.984;3.538;2023-05-10T12:48:21;18.17;;;5.63;;
47715;SDS011;33476;50.984;3.538;2023-05-10T12:50:47;15.13;;;4.78;;
47715;SDS011;33476;50.984;3.538;2023-05-10T12:53:13;11.48;;;4.75;;
47715;SDS011;33476;50.984;3.538;2023-05-10T12:55:40;8.18;;;3.38;;
47715;SDS011;33476;50.984;3.538;2023-05-10T12:58:06;8.75;;;3.92;;
47715;SDS011;33476;50.984;3.538;2023-05-10T13:00:32;11.77;;;3.97;;
47715;SDS011;33476;50.984;3.538;2023-05-10T13:02:57;9.02;;;3.83;;
47715;SDS011;33476;50.984;3.538;2023-05-10T13:05:23;14.23;;;4.03;;
47715;SDS011;33476;50.984;3.538;2023-05-10T13:07:48;10.35;;;3.30;;
47715;SDS011;33476;50.984;3.538;2023-05-10T13:10:13;12.88;;;3.42;;
47715;SDS011;33476;50.984;3.538;2023-05-10T13:12:39;8.40;;;3.10;;
47715;SDS011;33476;50.984;3.538;2023-05-10T13:15:04;8.43;;;2.92;;
47715;SDS011;33476;50.984;3.538;2023-05-10T13:17:30;16.63;;;3.03;;
47715;SDS011;33476;50.984;3.538;2023-05-10T13:19:56;11.25;;;2.05;;
47715;SDS011;33476;50.984;3.538;2023-05-10T13:22:21;9.30;;;2.88;;
47715;SDS011;33476;50.984;3.538;2023-05-10T13:24:46;9.55;;;2.53;;
47715;SDS011;33476;50.984;3.538;2023-05-10T13:27:12;9.63;;;1.70;;
47715;SDS011;33476;50.984;3.538;2023-05-10T13:29:37;9.90;;;1.40;;
47715;SDS011;33476;50.984;3.538;2023-05-10T13:32:03;6.45;;;1.58;;
47715;SDS011;33476;50.984;3.538;2023-05-10T13:34:28;10.38;;;1.95;;
47715;SDS011;33476;50.984;3.538;2023-05-10T13:36:53;12.90;;;1.95;;
47715;SDS011;33476;50.984;3.538;2023-05-10T13:39:20;8.35;;;1.60;;
47715;SDS011;33476;50.984;3.538;2023-05-10T13:41:46;5.47;;;0.98;;
47715;SDS011;33476;50.984;3.538;2023-05-10T13:44:12;9.07;;;1.50;;
47715;SDS011;33476;50.984;3.538;2023-05-10T13:46:39;6.85;;;1.42;;
47715;SDS011;33476;50.984;3.538;2023-05-10T13:49:04;6.85;;;1.40;;
47715;SDS011;33476;50.984;3.538;2023-05-10T13:51:30;8.27;;;0.82;;
47715;SDS011;33476;50.984;3.538;2023-05-10T13:53:56;7.40;;;1.55;;
47715;SDS011;33476;50.984;3.538;2023-05-10T13:56:22;4.85;;;1.25;;
47715;SDS011;33476;50.984;3.538;2023-05-10T13:58:48;6.95;;;1.67;;
47715;SDS011;33476;50.984;3.538;2023-05-10T14:01:13;6.60;;;1.63;;
47715;SDS011;33476;50.984;3.538;2023-05-10T14:03:39;7.28;;;1.67;;
47715;SDS011;33476;50.984;3.538;2023-05-10T14:06:04;4.97;;;1.38;;
47715;SDS011;33476;50.984;3.538;2023-05-10T14:08:29;8.68;;;1.63;;
47715;SDS011;33476;50.984;3.538;2023-05-10T14:10:55;7.32;;;1.50;;
47715;SDS011;33476;50.984;3.538;2023-05-10T14:13:21;5.63;;;1.23;;
47715;SDS011;33476;50.984;3.538;2023-05-10T14:15:48;8.82;;;1.17;;
47715;SDS011;33476;50.984;3.538;2023-05-10T14:18:14;5.05;;;1.02;;
47715;SDS011;33476;50.984;3.538;2023-05-10T14:20:39;4.90;;;1.13;;
47715;SDS011;33476;50.984;3.538;2023-05-10T14:23:04;6.47;;;1.65;;
47715;SDS011;33476;50.984;3.538;2023-05-10T14:25:30;6.20;;;1.25;;
47715;SDS011;33476;50.984;3.538;2023-05-10T14:27:55;7.85;;;1.45;;
47715;SDS011;33476;50.984;3.538;2023-05-10T14:30:21;8.57;;;1.10;;
47715;SDS011;33476;50.984;3.538;2023-05-10T14:32:46;11.07;;;1.30;;
47715;SDS011;33476;50.984;3.538;2023-05-10T14:35:11;7.43;;;1.02;;
47715;SDS011;33476;50.984;3.538;2023-05-10T14:37:37;8.57;;;1.52;;
47715;SDS011;33476;50.984;3.538;2023-05-10T14:40:03;7.38;;;1.40;;
47715;SDS011;33476;50.984;3.538;2023-05-10T14:42:29;8.48;;;1.35;;
47715;SDS011;33476;50.984;3.538;2023-05-10T14:44:56;4.80;;;0.68;;
47715;SDS011;33476;50.984;3.538;2023-05-10T14:47:21;7.30;;;1.20;;
47715;SDS011;33476;50.984;3.538;2023-05-10T14:49:47;8.05;;;1.00;;
47715;SDS011;33476;50.984;3.538;2023-05-10T14:52:12;5.43;;;0.98;;
47715;SDS011;33476;50.984;3.538;2023-05-10T14:54:39;7.50;;;1.17;;
47715;SDS011;33476;50.984;3.538;2023-05-10T14:57:05;7.68;;;1.13;;
47715;SDS011;33476;50.984;3.538;2023-05-10T14:59:31;3.50;;;0.93;;
47715;SDS011;33476;50.984;3.538;2023-05-10T15:01:56;6.88;;;1.35;;
47715;SDS011;33476;50.984;3.538;2023-05-10T15:04:22;3.90;;;1.00;;
47715;SDS011;33476;50.984;3.538;2023-05-10T15:06:47;5.55;;;1.02;;
47715;SDS011;33476;50.984;3.538;2023-05-10T15:09:13;4.00;;;1.15;;
47715;SDS011;33476;50.984;3.538;2023-05-10T15:11:38;9.63;;;1.23;;
47715;SDS011;33476;50.984;3.538;2023-05-10T15:14:03;5.20;;;1.20;;
47715;SDS011;33476;50.984;3.538;2023-05-10T15:16:29;6.90;;;1.42;;
47715;SDS011;33476;50.984;3.538;2023-05-10T15:18:54;7.93;;;1.27;;